createdAt,value
2019-05-10T00:01:03.628Z,8.47
2019-05-10T00:03:57.633Z,8.37
2019-05-10T00:06:50.142Z,7.87
2019-05-10T00:09:22.954Z,7.93
2019-05-10T00:12:20.637Z,8.23
2019-05-10T00:14:55.672Z,7.37
2019-05-10T00:17:29.943Z,8.00
2019-05-10T00:20:03.387Z,7.47
2019-05-10T00:22:37.754Z,7.10
2019-05-10T00:25:11.896Z,7.93
2019-05-10T00:27:45.901Z,6.40
2019-05-10T00:30:21.990Z,5.90
2019-05-10T00:32:55.444Z,6.03
2019-05-10T00:35:29.550Z,6.33
2019-05-10T00:38:03.869Z,5.70
2019-05-10T00:40:38.394Z,5.50
2019-05-10T00:43:12.491Z,5.90
2019-05-10T00:45:46.580Z,5.10
2019-05-10T00:48:20.880Z,5.57
2019-05-10T00:50:54.854Z,5.93
2019-05-10T00:53:30.004Z,5.67
2019-05-10T00:56:03.920Z,5.43
2019-05-10T00:58:40.066Z,6.33
2019-05-10T01:01:13.612Z,5.80
2019-05-10T01:03:47.175Z,5.20
2019-05-10T01:06:21.175Z,5.43
2019-05-10T01:08:54.715Z,5.50
2019-05-10T01:11:28.880Z,6.23
2019-05-10T01:14:03.154Z,6.03
2019-05-10T01:16:37.349Z,6.27
2019-05-10T01:19:12.000Z,5.93
2019-05-10T01:21:46.551Z,5.93
2019-05-10T01:24:20.909Z,5.60
2019-05-10T01:26:55.167Z,6.07
2019-05-10T01:29:29.339Z,5.87
2019-05-10T01:32:03.064Z,5.87
2019-05-10T01:34:37.391Z,5.80
2019-05-10T01:37:10.596Z,5.83
2019-05-10T01:39:45.248Z,5.87
2019-05-10T01:42:18.936Z,5.60
2019-05-10T01:44:53.004Z,5.40
2019-05-10T01:47:28.624Z,5.30
2019-05-10T01:50:02.596Z,5.70
2019-05-10T01:52:42.260Z,5.77
2019-05-10T01:55:16.777Z,5.50
2019-05-10T01:57:50.773Z,5.83
2019-05-10T02:00:25.430Z,5.07
2019-05-10T02:02:59.642Z,5.17
2019-05-10T02:05:34.071Z,5.63
2019-05-10T02:08:08.523Z,5.77
2019-05-10T02:10:45.148Z,5.03
2019-05-10T02:13:19.273Z,5.97
2019-05-10T02:15:53.844Z,5.37
2019-05-10T02:18:27.859Z,6.10
2019-05-10T02:21:01.922Z,6.50
2019-05-10T02:23:36.092Z,6.63
2019-05-10T02:26:10.404Z,5.93
2019-05-10T02:28:46.056Z,5.33
2019-05-10T02:31:21.753Z,6.20
2019-05-10T02:33:56.439Z,6.23
2019-05-10T02:36:31.501Z,5.80
2019-05-10T02:39:06.421Z,5.57
2019-05-10T02:41:45.632Z,5.30
2019-05-10T02:44:21.817Z,6.40
2019-05-10T02:46:55.945Z,5.97
2019-05-10T02:49:30.131Z,5.47
2019-05-10T02:52:04.076Z,6.57
2019-05-10T02:54:39.109Z,5.73
2019-05-10T02:57:13.495Z,5.90
2019-05-10T02:59:49.702Z,6.47
2019-05-10T03:02:24.132Z,6.17
2019-05-10T03:05:00.974Z,6.57
2019-05-10T03:07:37.669Z,7.43
2019-05-10T03:10:13.617Z,7.33
2019-05-10T03:12:49.188Z,6.77
2019-05-10T03:15:23.357Z,7.30
2019-05-10T03:17:58.852Z,7.00
2019-05-10T03:20:36.854Z,7.43
2019-05-10T03:23:12.382Z,7.80
2019-05-10T03:25:46.759Z,7.80
2019-05-10T03:28:21.580Z,7.47
2019-05-10T03:30:56.117Z,7.50
2019-05-10T03:33:30.525Z,7.33
2019-05-10T03:36:04.362Z,7.57
2019-05-10T03:38:39.868Z,7.70
2019-05-10T03:41:14.566Z,8.00
2019-05-10T03:43:50.369Z,8.30
2019-05-10T03:46:24.236Z,9.03
2019-05-10T03:48:57.898Z,10.23
2019-05-10T03:51:33.253Z,10.30
2019-05-10T03:54:07.465Z,11.37
2019-05-10T03:56:42.636Z,11.90
2019-05-10T03:59:18.486Z,13.00
2019-05-10T04:01:54.026Z,13.03
2019-05-10T04:04:29.040Z,13.90
2019-05-10T04:07:04.098Z,14.60
2019-05-10T04:09:39.378Z,14.47
2019-05-10T04:12:13.823Z,14.97
2019-05-10T04:14:49.042Z,15.17
2019-05-10T04:17:26.603Z,15.43
2019-05-10T04:20:01.001Z,16.13
2019-05-10T04:22:34.820Z,16.33
2019-05-10T04:25:09.796Z,16.00
2019-05-10T04:27:43.987Z,16.60
2019-05-10T04:30:20.602Z,16.10
2019-05-10T04:32:56.506Z,16.17
2019-05-10T04:35:31.013Z,17.23
2019-05-10T04:38:05.142Z,17.30
2019-05-10T04:40:40.475Z,17.07
2019-05-10T04:43:14.963Z,17.40
2019-05-10T04:45:48.553Z,17.10
2019-05-10T04:48:24.557Z,15.47
2019-05-10T04:50:59.945Z,16.73
2019-05-10T04:53:34.366Z,16.87
2019-05-10T04:56:08.806Z,16.47
2019-05-10T04:58:45.481Z,17.50
2019-05-10T05:01:20.240Z,17.67
2019-05-10T05:03:57.541Z,17.97
2019-05-10T05:06:32.152Z,18.87
2019-05-10T05:09:07.378Z,20.50
2019-05-10T05:11:42.063Z,20.07
2019-05-10T05:14:16.170Z,20.13
2019-05-10T05:16:50.920Z,20.43
2019-05-10T05:19:24.998Z,20.47
2019-05-10T05:21:59.144Z,20.87
2019-05-10T05:24:33.578Z,19.60
2019-05-10T05:27:11.079Z,20.10
2019-05-10T05:29:44.547Z,20.60
2019-05-10T05:32:19.184Z,20.30
2019-05-10T05:34:53.297Z,19.57
2019-05-10T05:37:28.571Z,20.03
2019-05-10T05:40:02.816Z,20.33
2019-05-10T05:42:37.092Z,20.83
2019-05-10T05:45:12.747Z,19.67
2019-05-10T05:47:47.943Z,19.87
2019-05-10T05:50:21.783Z,19.20
2019-05-10T05:52:56.333Z,18.50
2019-05-10T05:55:32.297Z,19.40
2019-05-10T05:58:07.274Z,17.83
2019-05-10T06:00:44.830Z,19.70
2019-05-10T06:03:19.289Z,18.13
2019-05-10T06:05:51.362Z,19.30
2019-05-10T06:08:30.025Z,18.77
2019-05-10T06:11:04.148Z,17.17
2019-05-10T06:13:38.238Z,16.73
2019-05-10T06:16:14.833Z,15.93
2019-05-10T06:18:49.593Z,15.43
2019-05-10T06:21:26.520Z,15.50
2019-05-10T06:24:00.065Z,15.90
2019-05-10T06:26:34.408Z,15.83
2019-05-10T06:29:16.112Z,17.17
2019-05-10T06:31:44.151Z,16.63
2019-05-10T06:34:17.821Z,17.13
2019-05-10T06:36:53.217Z,17.60
2019-05-10T06:39:27.953Z,18.03
2019-05-10T06:42:04.311Z,16.07
2019-05-10T06:44:38.953Z,16.37
2019-05-10T06:47:13.368Z,17.00
2019-05-10T06:49:52.102Z,16.90
2019-05-10T06:52:27.860Z,16.13
2019-05-10T06:54:59.731Z,16.10
2019-05-10T06:57:35.839Z,16.80
2019-05-10T07:00:11.112Z,16.87
2019-05-10T07:02:46.550Z,17.73
2019-05-10T07:05:21.284Z,18.27
2019-05-10T07:07:59.440Z,17.87
2019-05-10T07:10:33.643Z,17.03
2019-05-10T07:13:06.829Z,17.90
2019-05-10T07:15:44.629Z,16.87
2019-05-10T07:18:21.921Z,16.70
2019-05-10T07:20:51.817Z,18.03
2019-05-10T07:23:25.541Z,17.50
2019-05-10T07:26:00.427Z,17.73
2019-05-10T07:28:34.639Z,16.00
2019-05-10T07:31:09.030Z,16.83
2019-05-10T07:33:44.108Z,17.07
2019-05-10T07:36:30.950Z,15.80
2019-05-10T07:39:08.424Z,15.57
2019-05-10T07:41:42.978Z,16.37
2019-05-10T07:44:19.623Z,14.27
2019-05-10T07:46:58.530Z,14.23
2019-05-10T07:49:32.543Z,14.50
2019-05-10T07:52:06.963Z,9.93
2019-05-10T07:54:47.507Z,7.57
2019-05-10T07:57:24.735Z,6.30
2019-05-10T08:00:03.443Z,6.57
2019-05-10T08:02:34.469Z,6.47
2019-05-10T08:05:14.017Z,6.93
2019-05-10T08:07:46.382Z,6.30
2019-05-10T08:10:25.551Z,6.43
2019-05-10T08:13:03.551Z,6.10
2019-05-10T08:15:39.078Z,6.30
2019-05-10T08:18:15.423Z,6.33
2019-05-10T08:20:56.799Z,5.80
2019-05-10T08:23:31.219Z,5.87
2019-05-10T08:26:11.012Z,5.87
2019-05-10T08:28:52.388Z,5.73
2019-05-10T08:31:33.803Z,4.40
2019-05-10T08:34:08.018Z,5.30
2019-05-10T08:36:55.155Z,4.17
2019-05-10T08:39:34.798Z,4.30
2019-05-10T08:42:38.107Z,4.83
2019-05-10T08:45:03.651Z,4.17
2019-05-10T08:47:35.738Z,4.13
2019-05-10T08:50:28.811Z,4.73
2019-05-10T08:52:56.861Z,4.77
2019-05-10T08:55:35.577Z,4.50
2019-05-10T09:01:44.825Z,4.83
2019-05-10T09:04:10.854Z,5.47
2019-05-10T09:06:50.814Z,5.47
2019-05-10T09:09:16.662Z,5.30
2019-05-10T09:11:49.180Z,6.00
2019-05-10T09:14:24.151Z,5.40
2019-05-10T09:17:00.627Z,5.67
2019-05-10T09:19:39.610Z,5.40
2019-05-10T09:22:04.272Z,4.97
2019-05-10T09:24:41.004Z,5.10
2019-05-10T09:27:14.703Z,4.93
2019-05-10T09:29:47.809Z,4.80
2019-05-10T09:32:28.609Z,4.77
2019-05-10T09:34:59.720Z,4.80
2019-05-10T09:37:32.101Z,4.73
2019-05-10T09:40:09.910Z,4.80
2019-05-10T09:42:43.423Z,6.97
2019-05-10T09:45:14.719Z,6.10
2019-05-10T09:47:49.608Z,7.00
2019-05-10T09:50:22.956Z,6.70
2019-05-10T09:52:56.324Z,5.53
2019-05-10T09:55:29.263Z,5.23
2019-05-10T09:58:02.349Z,5.40
2019-05-10T10:00:37.905Z,5.80
2019-05-10T10:03:12.778Z,5.70
2019-05-10T10:05:48.075Z,4.80
2019-05-10T10:08:19.438Z,5.30
2019-05-10T10:11:18.728Z,4.47
2019-05-10T10:13:58.967Z,5.30
2019-05-10T10:16:24.702Z,4.80
2019-05-10T10:18:59.661Z,4.57
2019-05-10T10:21:35.497Z,4.63
2019-05-10T10:24:15.550Z,5.13
2019-05-10T10:26:41.588Z,5.37
2019-05-10T10:29:13.854Z,5.23
2019-05-10T10:31:52.996Z,5.30
2019-05-10T10:34:19.210Z,5.87
2019-05-10T10:36:51.242Z,5.93
2019-05-10T10:39:24.440Z,6.17
2019-05-10T10:41:57.306Z,5.77
2019-05-10T10:44:30.516Z,5.47
2019-05-10T10:47:03.219Z,5.77
2019-05-10T10:49:35.008Z,5.97
2019-05-10T10:52:11.222Z,5.80
2019-05-10T10:54:41.721Z,5.90
2019-05-10T10:57:19.071Z,6.33
2019-05-10T10:59:50.676Z,5.50
2019-05-10T11:02:32.698Z,5.43
2019-05-10T11:04:55.839Z,5.00
2019-05-10T11:07:30.264Z,5.63
2019-05-10T11:10:14.586Z,6.10
2019-05-10T11:12:36.214Z,6.70
2019-05-10T11:15:07.929Z,6.70
2019-05-10T11:17:57.334Z,7.40
2019-05-10T11:20:31.765Z,7.97
2019-05-10T11:23:04.536Z,7.00
2019-05-10T11:25:36.188Z,5.73
2019-05-10T11:28:09.315Z,7.07
2019-05-10T11:30:42.264Z,5.67
2019-05-10T11:33:26.590Z,6.73
2019-05-10T11:35:51.394Z,7.20
2019-05-10T11:38:24.230Z,6.73
2019-05-10T11:40:56.352Z,8.00
2019-05-10T11:43:31.186Z,8.67
2019-05-10T11:46:04.329Z,9.83
2019-05-10T11:48:38.842Z,10.13
2019-05-10T11:51:17.149Z,10.60
2019-05-10T11:56:25.030Z,10.77
2019-05-10T11:58:56.731Z,11.83
2019-05-10T11:59:04.537Z,10.83
2019-05-10T12:01:54.787Z,11.63
2019-05-10T12:04:24.091Z,11.60
2019-05-10T12:06:51.475Z,12.07
2019-05-10T12:09:24.500Z,12.10
2019-05-10T12:12:02.992Z,10.33
2019-05-10T12:14:33.929Z,9.63
2019-05-10T12:17:06.996Z,8.33
2019-05-10T12:19:45.387Z,8.13
2019-05-10T12:22:15.780Z,7.00
2019-05-10T12:25:04.265Z,7.67
2019-05-10T12:27:28.593Z,7.37
2019-05-10T12:29:59.687Z,7.70
2019-05-10T12:32:35.168Z,7.23
2019-05-10T12:35:01.599Z,7.40
2019-05-10T12:37:34.410Z,7.77
2019-05-10T12:40:11.928Z,6.83
2019-05-10T12:42:42.396Z,7.20
2019-05-10T12:45:15.554Z,7.33
2019-05-10T12:47:51.787Z,6.27
2019-05-10T12:50:24.932Z,6.60
2019-05-10T12:53:12.595Z,7.50
2019-05-10T12:55:34.551Z,6.70
2019-05-10T12:58:07.934Z,6.30
2019-05-10T13:00:41.158Z,5.50
2019-05-10T13:03:14.046Z,5.23
2019-05-10T13:05:52.654Z,5.13
2019-05-10T13:08:21.010Z,4.80
2019-05-10T13:10:54.191Z,4.80
2019-05-10T13:13:29.968Z,4.03
2019-05-10T13:16:03.533Z,4.20
2019-05-10T13:18:52.812Z,4.17
2019-05-10T13:21:19.660Z,4.80
2019-05-10T13:23:45.967Z,4.55
2019-05-10T13:26:19.369Z,4.03
2019-05-10T13:28:52.154Z,4.20
2019-05-10T13:31:27.061Z,4.17
2019-05-10T13:33:59.891Z,5.30
2019-05-10T13:36:36.980Z,4.67
2019-05-10T13:39:08.976Z,4.60
2019-05-10T13:41:43.516Z,4.83
2019-05-10T13:44:16.922Z,4.67
2019-05-10T13:46:50.660Z,4.70
2019-05-10T13:49:26.256Z,4.37
2019-05-10T13:52:02.753Z,5.72
2019-05-10T13:55:03.795Z,5.30
2019-05-10T13:57:46.699Z,5.43
2019-05-10T14:00:12.040Z,4.97
2019-05-10T14:03:04.858Z,5.27
2019-05-10T14:05:41.123Z,4.97
2019-05-10T14:08:21.497Z,4.53
2019-05-10T14:10:55.911Z,6.53
2019-05-10T14:13:35.876Z,8.80
2019-05-10T14:16:13.762Z,9.03
2019-05-10T14:18:46.792Z,9.07
2019-05-10T14:21:20.454Z,8.77
2019-05-10T14:23:57.508Z,7.87
2019-05-10T14:26:31.952Z,9.63
2019-05-10T14:29:05.847Z,9.90
2019-05-10T14:32:02.227Z,10.10
2019-05-10T14:34:44.027Z,8.87
2019-05-10T14:37:19.209Z,8.50
2019-05-10T14:39:52.665Z,6.70
2019-05-10T14:42:31.273Z,6.03
2019-05-10T14:45:05.805Z,5.30
2019-05-10T14:47:47.587Z,5.47
2019-05-10T14:50:19.340Z,5.60
2019-05-10T14:52:58.994Z,5.87
2019-05-10T14:55:35.175Z,6.87
2019-05-10T14:58:10.112Z,5.50
2019-05-10T15:00:46.660Z,5.40
2019-05-10T15:03:21.068Z,4.80
2019-05-10T15:06:01.339Z,4.00
2019-05-10T15:08:34.330Z,4.40
2019-05-10T15:11:09.613Z,4.07
2019-05-10T15:13:45.130Z,4.80
2019-05-10T15:16:26.895Z,4.43
2019-05-10T15:18:54.419Z,4.47
2019-05-10T15:21:27.948Z,5.00
2019-05-10T15:24:03.175Z,4.53
2019-05-10T15:26:43.984Z,5.00
2019-05-10T15:29:15.032Z,6.22
2019-05-10T15:31:49.698Z,5.83
2019-05-10T15:34:27.750Z,8.07
2019-05-10T15:37:09.228Z,7.43
2019-05-10T15:39:39.292Z,7.90
2019-05-10T15:42:14.353Z,8.07
2019-05-10T15:44:49.460Z,8.37
2019-05-10T15:47:24.025Z,8.30
2019-05-10T15:52:39.556Z,7.97
2019-05-10T15:55:16.570Z,7.40
2019-05-10T15:57:51.883Z,7.63
2019-05-10T15:59:23.902Z,7.93
2019-05-10T16:00:37.350Z,7.37
2019-05-10T16:03:05.055Z,8.30
2019-05-10T16:05:43.900Z,8.20
2019-05-10T16:08:15.641Z,10.43
2019-05-10T16:10:49.859Z,13.10
2019-05-10T16:13:25.590Z,10.97
2019-05-10T16:16:00.746Z,14.30
2019-05-10T16:18:39.745Z,11.63
2019-05-10T16:21:15.140Z,12.67
2019-05-10T16:23:48.380Z,11.63
2019-05-10T16:26:22.892Z,10.87
2019-05-10T16:29:01.885Z,12.07
2019-05-10T16:31:29.348Z,10.57
2019-05-10T16:34:02.138Z,9.33
2019-05-10T16:36:34.830Z,11.93
2019-05-10T16:39:07.782Z,11.23
2019-05-10T16:41:40.442Z,10.70
2019-05-10T16:44:14.511Z,11.00
2019-05-10T16:46:51.042Z,10.77
2019-05-10T16:49:24.299Z,11.47
2019-05-10T16:51:58.034Z,11.70
2019-05-10T16:54:30.371Z,12.33
2019-05-10T16:57:06.686Z,10.70
2019-05-10T16:59:44.528Z,11.20
2019-05-10T17:02:16.760Z,9.83
2019-05-10T17:04:49.133Z,10.53
2019-05-10T17:07:24.941Z,9.13
2019-05-10T17:09:57.584Z,9.53
2019-05-10T17:12:29.810Z,8.60
2019-05-10T17:15:04.113Z,7.80
2019-05-10T17:17:38.985Z,7.83
2019-05-10T17:20:15.853Z,7.80
2019-05-10T17:22:45.440Z,7.40
2019-05-10T17:25:18.394Z,6.57
2019-05-10T17:27:57.531Z,6.80
2019-05-10T17:30:27.869Z,6.67
2019-05-10T17:33:03.911Z,6.93
2019-05-10T17:35:42.106Z,6.83
2019-05-10T17:38:14.390Z,7.50
2019-05-10T17:40:49.822Z,7.67
2019-05-10T17:43:25.945Z,7.20
2019-05-10T17:46:05.397Z,8.30
2019-05-10T17:48:40.713Z,8.33
2019-05-10T17:51:14.414Z,8.87
2019-05-10T17:53:54.767Z,9.27
2019-05-10T17:56:23.211Z,10.03
2019-05-10T17:58:55.758Z,9.70
2019-05-10T18:01:30.663Z,9.30
2019-05-10T18:04:03.650Z,9.23
2019-05-10T18:06:37.505Z,9.57
2019-05-10T18:09:12.296Z,10.50
2019-05-10T18:11:47.847Z,11.67
2019-05-10T18:14:29.663Z,11.33
2019-05-10T18:17:07.100Z,11.47
2019-05-10T18:19:37.683Z,11.87
2019-05-10T18:22:12.817Z,13.00
2019-05-10T18:24:46.002Z,13.70
2019-05-10T18:27:18.665Z,13.67
2019-05-10T18:29:51.080Z,15.07
2019-05-10T18:32:23.554Z,14.03
2019-05-10T18:34:55.660Z,15.97
2019-05-10T18:37:30.730Z,15.57
2019-05-10T18:40:03.141Z,16.33
2019-05-10T18:42:36.183Z,16.77
2019-05-10T18:45:13.197Z,17.53
2019-05-10T18:47:46.033Z,16.30
2019-05-10T18:50:19.076Z,17.80
2019-05-10T18:52:51.366Z,17.90
2019-05-10T18:55:25.876Z,16.90
2019-05-10T18:58:01.234Z,16.80
2019-05-10T19:00:40.114Z,17.90
2019-05-10T19:03:11.611Z,19.47
2019-05-10T19:05:44.154Z,18.83
2019-05-10T19:08:18.489Z,19.63
2019-05-10T19:10:51.207Z,18.83
2019-05-10T19:13:23.531Z,20.57
2019-05-10T19:15:58.644Z,19.70
2019-05-10T19:18:32.904Z,21.43
2019-05-10T19:21:07.566Z,22.67
2019-05-10T19:23:41.144Z,22.23
2019-05-10T19:26:13.563Z,20.97
2019-05-10T19:28:45.966Z,23.03
2019-05-10T19:31:18.984Z,21.90
2019-05-10T19:33:52.644Z,21.47
2019-05-10T19:36:42.733Z,21.77
2019-05-10T19:39:15.108Z,22.83
2019-05-10T19:41:47.416Z,22.77
2019-05-10T19:44:20.172Z,22.67
2019-05-10T19:46:52.779Z,24.33
2019-05-10T19:49:24.871Z,23.90
2019-05-10T19:51:57.751Z,24.80
2019-05-10T19:54:30.163Z,24.90
2019-05-10T19:57:08.978Z,24.67
2019-05-10T19:59:37.696Z,25.03
2019-05-10T20:02:14.451Z,25.60
2019-05-10T20:04:49.632Z,29.77
2019-05-10T20:07:21.766Z,29.03
2019-05-10T20:09:57.004Z,29.33
2019-05-10T20:12:30.029Z,30.13
2019-05-10T20:15:05.340Z,29.47
2019-05-10T20:17:39.355Z,28.77
2019-05-10T20:20:14.118Z,28.70
2019-05-10T20:22:49.579Z,31.53
2019-05-10T20:25:23.132Z,29.20
2019-05-10T20:27:58.263Z,29.53
2019-05-10T20:30:31.555Z,32.67
2019-05-10T20:33:07.509Z,30.87
2019-05-10T20:35:41.882Z,31.37
2019-05-10T20:38:16.480Z,30.13
2019-05-10T20:40:50.858Z,32.73
2019-05-10T20:43:25.814Z,31.50
2019-05-10T20:45:59.767Z,33.27
2019-05-10T20:48:33.691Z,30.20
2019-05-10T20:51:08.665Z,31.27
2019-05-10T20:53:44.088Z,30.67
2019-05-10T20:56:20.947Z,31.83
2019-05-10T20:58:56.767Z,29.53
2019-05-10T21:01:34.023Z,29.23
2019-05-10T21:04:10.642Z,29.93
2019-05-10T21:06:48.435Z,29.20
2019-05-10T21:09:24.964Z,29.50
2019-05-10T21:12:00.889Z,30.20
2019-05-10T21:14:34.212Z,31.03
2019-05-10T21:17:07.739Z,30.93
2019-05-10T21:19:40.287Z,31.70
2019-05-10T21:22:16.590Z,33.57
2019-05-10T21:24:51.337Z,30.40
2019-05-10T21:27:28.083Z,32.10
2019-05-10T21:30:02.954Z,28.97
2019-05-10T21:32:36.672Z,30.27
2019-05-10T21:35:12.678Z,31.63
2019-05-10T21:37:48.248Z,31.80
2019-05-10T21:40:22.477Z,31.10
2019-05-10T21:42:57.037Z,31.17
2019-05-10T21:45:32.536Z,29.70
2019-05-10T21:48:11.167Z,31.40
2019-05-10T21:50:45.798Z,30.20
2019-05-10T21:53:21.915Z,32.27
2019-05-10T21:55:56.835Z,31.50
2019-05-10T21:58:32.126Z,32.17
2019-05-10T22:01:07.631Z,31.87
2019-05-10T22:03:42.631Z,32.00
2019-05-10T22:06:17.236Z,31.83
2019-05-10T22:08:52.781Z,30.97
2019-05-10T22:11:27.608Z,33.50
2019-05-10T22:14:02.657Z,32.93
2019-05-10T22:16:37.452Z,33.40
2019-05-10T22:19:11.349Z,32.53
2019-05-10T22:21:45.828Z,33.13
2019-05-10T22:24:19.808Z,32.60
2019-05-10T22:26:53.841Z,32.30
2019-05-10T22:29:29.460Z,31.10
2019-05-10T22:32:07.697Z,34.33
2019-05-10T22:34:43.256Z,33.17
2019-05-10T22:37:17.749Z,29.73
2019-05-10T22:39:51.392Z,32.97
2019-05-10T22:42:26.106Z,31.83
2019-05-10T22:45:02.704Z,34.40
2019-05-10T22:47:36.626Z,34.63
2019-05-10T22:50:10.978Z,34.90
2019-05-10T22:52:44.345Z,34.40
2019-05-10T22:55:18.591Z,33.70
2019-05-10T22:57:53.413Z,35.57
2019-05-10T23:00:27.447Z,34.40
2019-05-10T23:03:01.960Z,32.37
2019-05-10T23:05:37.087Z,33.67
2019-05-10T23:08:12.098Z,33.17
2019-05-10T23:10:46.337Z,32.93
2019-05-10T23:13:20.625Z,34.40
2019-05-10T23:15:54.832Z,33.77
2019-05-10T23:18:29.208Z,32.07
2019-05-10T23:21:03.018Z,31.43
2019-05-10T23:23:36.657Z,33.63
2019-05-10T23:26:11.046Z,35.27
2019-05-10T23:28:45.462Z,35.87
2019-05-10T23:31:19.001Z,37.80
2019-05-10T23:33:53.406Z,37.23
2019-05-10T23:36:27.422Z,38.47
2019-05-10T23:39:02.153Z,35.80
2019-05-10T23:41:37.689Z,36.27
2019-05-10T23:44:12.646Z,35.30
2019-05-10T23:46:46.633Z,31.27
2019-05-10T23:49:20.975Z,32.23
2019-05-10T23:51:58.857Z,31.73
2019-05-10T23:54:33.980Z,30.97
2019-05-10T23:57:08.815Z,29.70
2019-05-10T23:59:42.725Z,29.87
